Time;durP1;ratioP1;P1;durP2;ratioP2;P2;SDS_P1;SDS_P2;PMS_P1;PMS_P2;Temp;Humidity;BMP_temperature;BMP_pressure;BME280_temperature;BME280_humidity;BME280_pressure;Samples;Min_cycle;Max_cycle;Signal;HPM_P1;HPM_P2
2022/08/06 00:01:04;;;;;;;3.67;1.20;;;14.80;1.00;;;;;;5113328;28;20622;-75
2022/08/06 00:03:30;;;;;;;2.53;1.20;;;14.80;1.00;;;;;;5113089;28;20215;-75
2022/08/06 00:05:56;;;;;;;3.20;1.40;;;14.90;1.00;;;;;;5113344;28;20210;-75
2022/08/06 00:08:21;;;;;;;6.00;1.60;;;14.90;1.00;;;;;;5114926;28;20582;-75
2022/08/06 00:10:47;;;;;;;2.70;1.20;;;14.70;1.00;;;;;;5116648;28;20182;-74
2022/08/06 00:13:13;;;;;;;2.40;1.47;;;14.70;1.00;;;;;;5116635;28;20577;-75
2022/08/06 00:15:38;;;;;;;2.43;1.53;;;14.70;1.00;;;;;;5116890;28;20167;-75
2022/08/06 00:18:04;;;;;;;2.10;1.20;;;14.70;1.00;;;;;;5116630;28;20175;-75
2022/08/06 00:20:30;;;;;;;4.77;1.50;;;14.70;1.00;;;;;;5116891;28;20266;-75
2022/08/06 00:22:56;;;;;;;5.03;1.40;;;14.60;1.00;;;;;;5116620;28;20259;-75
2022/08/06 00:25:21;;;;;;;3.33;1.50;;;14.60;1.00;;;;;;5116460;28;20176;-75
2022/08/06 00:27:47;;;;;;;3.77;1.43;;;14.50;1.00;;;;;;5116746;28;20186;-75
2022/08/06 00:30:12;;;;;;;4.43;1.60;;;14.50;1.00;;;;;;5116775;28;20172;-75
2022/08/06 00:32:38;;;;;;;5.67;1.47;;;14.40;1.00;;;;;;5116336;28;20689;-75
2022/08/06 00:35:04;;;;;;;2.43;1.60;;;14.50;1.00;;;;;;5098282;28;20171;-75
2022/08/06 00:37:32;;;;;;;4.90;1.37;;;14.40;1.00;;;;;;5116410;28;20175;-75
2022/08/06 00:39:58;;;;;;;5.00;1.40;;;14.40;1.00;;;;;;5116058;28;20646;-75
2022/08/06 00:42:25;;;;;;;3.60;1.60;;;14.30;1.00;;;;;;5097958;28;20203;-75
2022/08/06 00:44:51;;;;;;;5.17;1.90;;;14.30;1.00;;;;;;5116241;28;20213;-75
2022/08/06 00:47:17;;;;;;;3.70;1.80;;;14.20;1.00;;;;;;5115958;28;20175;-75
2022/08/06 00:49:42;;;;;;;2.73;1.70;;;14.10;1.00;;;;;;5097809;28;20175;-75
2022/08/06 00:52:08;;;;;;;3.80;1.63;;;14.10;1.00;;;;;;5116302;28;20171;-75
2022/08/06 00:54:33;;;;;;;3.63;1.50;;;14.10;1.00;;;;;;5115697;28;20167;-75
2022/08/06 00:56:59;;;;;;;4.87;1.53;;;14.10;1.00;;;;;;5115931;28;20210;-75
2022/08/06 00:59:25;;;;;;;4.43;1.60;;;14.20;1.00;;;;;;5116018;28;20227;-75
2022/08/06 01:01:50;;;;;;;4.20;1.60;;;14.10;1.00;;;;;;5097464;28;20318;-75
2022/08/06 01:04:16;;;;;;;3.13;1.57;;;14.20;1.00;;;;;;5115968;28;20167;-75
2022/08/06 01:06:42;;;;;;;6.27;1.70;;;14.20;1.00;;;;;;5115762;28;20666;-75
2022/08/06 01:09:09;;;;;;;4.90;1.43;;;14.20;1.00;;;;;;5115541;28;20198;-75
2022/08/06 01:11:34;;;;;;;2.73;1.50;;;14.10;1.00;;;;;;5115500;28;20215;-75
2022/08/06 01:14:00;;;;;;;2.83;1.47;;;14.20;1.00;;;;;;5115916;28;20747;-75
2022/08/06 01:16:30;;;;;;;5.13;1.50;;;14.10;1.00;;;;;;5115751;28;20175;-75
2022/08/06 01:19:14;;;;;;;4.47;1.60;;;14.10;1.00;;;;;;5115496;28;21014;-75
2022/08/06 01:22:00;;;;;;;5.47;1.40;;;14.10;1.00;;;;;;5115469;28;20290;-75
2022/08/06 01:24:35;;;;;;;3.63;1.63;;;14.20;1.00;;;;;;5115255;28;20170;-75
2022/08/06 01:27:23;;;;;;;2.43;1.43;;;14.10;1.00;;;;;;5115348;28;20170;-75
2022/08/06 01:29:53;;;;;;;6.60;1.80;;;14.10;1.00;;;;;;5115479;28;20220;-75
2022/08/06 01:32:28;;;;;;;5.70;1.50;;;14.00;1.00;;;;;;5115282;28;20201;-75
2022/08/06 01:34:59;;;;;;;3.80;1.57;;;14.10;1.00;;;;;;5115248;28;20630;-74
2022/08/06 01:37:49;;;;;;;3.03;1.53;;;14.00;1.00;;;;;;5114692;28;20167;-75
2022/08/06 01:40:22;;;;;;;5.40;1.77;;;14.00;1.00;;;;;;5115266;28;20178;-74
2022/08/06 01:42:49;;;;;;;4.40;1.93;;;13.90;1.00;;;;;;5115162;28;20219;-74
2022/08/06 01:45:19;;;;;;;5.00;2.00;;;13.90;1.00;;;;;;5096600;28;20254;-74
2022/08/06 01:47:49;;;;;;;4.77;1.83;;;13.90;1.00;;;;;;5114788;28;20673;-75
2022/08/06 01:50:17;;;;;;;3.00;1.80;;;13.80;1.00;;;;;;5115036;28;20167;-74
2022/08/06 01:52:43;;;;;;;6.77;2.10;;;13.80;1.00;;;;;;5114520;28;20195;-75
2022/08/06 01:55:13;;;;;;;5.13;1.53;;;13.80;1.00;;;;;;5114892;28;20199;-74
2022/08/06 01:57:45;;;;;;;4.03;1.70;;;13.80;1.00;;;;;;5096546;28;20174;-75
2022/08/06 02:00:11;;;;;;;3.47;1.67;;;13.70;1.00;;;;;;5114645;28;20191;-74
2022/08/06 02:02:38;;;;;;;5.77;1.77;;;13.70;1.00;;;;;;5114582;28;20199;-74
2022/08/06 02:05:06;;;;;;;5.40;1.53;;;13.70;1.00;;;;;;5114662;28;20297;-75
2022/08/06 02:07:36;;;;;;;6.97;1.73;;;13.80;1.00;;;;;;5114018;28;20182;-75
2022/08/06 02:10:05;;;;;;;6.80;1.80;;;13.80;1.00;;;;;;5114513;28;20167;-74
2022/08/06 02:12:34;;;;;;;5.17;1.83;;;13.70;1.00;;;;;;5114054;28;20223;-74
2022/08/06 02:15:05;;;;;;;3.37;1.70;;;13.80;1.00;;;;;;5114500;28;20171;-74
2022/08/06 02:17:37;;;;;;;4.10;1.67;;;13.80;1.00;;;;;;5114481;28;20565;-74
2022/08/06 02:20:04;;;;;;;2.40;1.70;;;13.80;1.00;;;;;;5114648;28;20167;-75
2022/08/06 02:22:33;;;;;;;5.53;1.87;;;13.80;1.00;;;;;;5114038;28;20285;-74
2022/08/06 02:25:05;;;;;;;5.03;1.93;;;13.80;1.00;;;;;;5114255;28;20172;-74
2022/08/06 02:27:32;;;;;;;6.43;1.90;;;13.80;1.00;;;;;;5114109;28;20179;-74
2022/08/06 02:30:00;;;;;;;3.43;1.70;;;13.80;1.00;;;;;;5114020;28;20163;-74
2022/08/06 02:32:26;;;;;;;4.27;1.80;;;13.80;1.00;;;;;;5095469;28;20673;-74
2022/08/06 02:34:53;;;;;;;4.60;1.80;;;13.80;1.00;;;;;;5113721;28;20163;-74
2022/08/06 02:37:26;;;;;;;6.30;1.80;;;13.80;1.00;;;;;;5113938;28;20171;-74
2022/08/06 02:40:01;;;;;;;8.67;2.17;;;13.80;1.00;;;;;;5113915;28;20215;-74
2022/08/06 02:42:35;;;;;;;5.20;1.90;;;13.80;1.00;;;;;;5114007;28;20210;-74
2022/08/06 02:45:19;;;;;;;4.50;1.93;;;13.80;1.00;;;;;;5114118;28;20171;-74
2022/08/06 02:47:51;;;;;;;5.97;1.90;;;13.80;1.00;;;;;;5095776;28;20202;-74
2022/08/06 02:50:20;;;;;;;4.20;2.00;;;13.90;1.00;;;;;;5095243;28;20171;-75
2022/08/06 02:52:57;;;;;;;2.90;1.73;;;13.90;1.00;;;;;;5113765;28;20182;-75
2022/08/06 02:55:28;;;;;;;4.70;1.83;;;13.80;1.00;;;;;;5113850;28;20621;-74
2022/08/06 02:58:03;;;;;;;4.50;1.80;;;13.80;1.00;;;;;;5113793;28;20255;-75
2022/08/06 03:00:31;;;;;;;4.10;1.87;;;13.90;1.00;;;;;;5113659;28;20166;-74
2022/08/06 03:03:00;;;;;;;5.37;2.00;;;13.90;1.00;;;;;;5113849;28;20552;-75
2022/08/06 03:05:27;;;;;;;5.67;2.03;;;13.90;1.00;;;;;;5113211;28;20159;-75
2022/08/06 03:07:57;;;;;;;4.43;1.93;;;13.90;1.00;;;;;;5113588;28;20167;-75
2022/08/06 03:10:25;;;;;;;5.10;1.90;;;13.90;1.00;;;;;;5113779;28;20218;-75
2022/08/06 03:12:52;;;;;;;6.33;2.20;;;13.80;1.00;;;;;;5113047;28;20227;-75
2022/08/06 03:15:19;;;;;;;4.20;2.10;;;13.80;1.00;;;;;;5113522;28;20173;-75
2022/08/06 03:17:46;;;;;;;5.77;2.07;;;13.80;1.00;;;;;;5113218;28;20182;-74
2022/08/06 03:20:15;;;;;;;6.83;1.97;;;13.80;1.00;;;;;;5094971;28;20199;-75
2022/08/06 03:22:41;;;;;;;6.27;2.00;;;13.70;1.00;;;;;;5113352;28;20211;-75
2022/08/06 03:25:09;;;;;;;4.60;1.90;;;13.60;1.00;;;;;;5113470;28;20174;-75
2022/08/06 03:27:37;;;;;;;4.77;1.87;;;13.50;1.00;;;;;;5095080;28;20171;-75
2022/08/06 03:30:03;;;;;;;6.00;1.80;;;13.60;1.00;;;;;;5113407;28;20166;-75
2022/08/06 03:32:29;;;;;;;4.43;2.13;;;13.50;1.00;;;;;;5113178;28;20273;-75
2022/08/06 03:34:57;;;;;;;5.20;2.00;;;13.50;1.00;;;;;;5112828;28;20160;-75
2022/08/06 03:37:24;;;;;;;7.83;2.07;;;13.60;1.00;;;;;;5095035;28;20266;-75
2022/08/06 03:39:50;;;;;;;4.00;2.23;;;13.60;1.00;;;;;;5113281;28;20174;-74
2022/08/06 03:42:16;;;;;;;5.00;1.87;;;13.60;1.00;;;;;;5113227;28;20210;-75
2022/08/06 03:44:42;;;;;;;5.03;1.90;;;13.60;1.00;;;;;;5098992;28;20168;-75
2022/08/06 03:47:22;;;;;;;6.07;2.27;;;13.60;1.00;;;;;;5117263;28;20171;-74
2022/08/06 03:49:59;;;;;;;8.03;2.23;;;13.70;1.00;;;;;;5117324;28;20171;-75
2022/08/06 03:52:29;;;;;;;6.90;2.57;;;13.70;1.00;;;;;;5117141;28;20174;-75
2022/08/06 03:55:02;;;;;;;5.67;2.07;;;13.70;1.00;;;;;;5116395;28;20176;-74
2022/08/06 03:57:34;;;;;;;8.83;2.60;;;13.60;1.00;;;;;;5116657;28;20181;-75
2022/08/06 04:00:03;;;;;;;4.33;2.40;;;13.60;5.70;;;;;;5116776;28;20179;-74
2022/08/06 04:02:36;;;;;;;7.33;2.20;;;13.70;4.60;;;;;;5098409;28;20221;-75
2022/08/06 04:05:02;;;;;;;4.70;2.43;;;13.80;5.00;;;;;;5117020;28;20648;-75
2022/08/06 04:07:29;;;;;;;3.60;2.30;;;13.80;4.90;;;;;;5116624;28;20171;-75
2022/08/06 04:09:55;;;;;;;4.87;2.43;;;13.80;7.00;;;;;;5116783;28;20166;-75
2022/08/06 04:12:22;;;;;;;6.63;2.90;;;13.70;15.90;;;;;;5085511;28;20255;-75
2022/08/06 04:14:48;;;;;;;8.60;2.40;;;13.60;26.70;;;;;;5076015;28;20222;-75
2022/08/06 04:17:15;;;;;;;4.73;2.33;;;13.60;33.90;;;;;;5075482;28;20168;-74
2022/08/06 04:19:41;;;;;;;9.40;2.43;;;13.60;36.00;;;;;;5075777;28;20183;-74
2022/08/06 04:22:07;;;;;;;4.13;2.60;;;13.70;32.00;;;;;;5075456;28;20224;-75
2022/08/06 04:24:32;;;;;;;4.63;2.30;;;13.70;34.00;;;;;;5075731;28;20196;-74
2022/08/06 04:27:04;;;;;;;5.63;2.37;;;13.70;35.60;;;;;;5075582;28;20211;-74
2022/08/06 04:29:32;;;;;;;5.90;2.70;;;13.80;28.10;;;;;;5076083;28;20160;-74
2022/08/06 04:31:59;;;;;;;5.20;2.60;;;13.80;31.30;;;;;;5075460;28;20230;-75
2022/08/06 04:34:26;;;;;;;9.73;2.37;;;13.90;29.80;;;;;;5075573;28;20191;-74
2022/08/06 04:36:53;;;;;;;11.13;2.67;;;14.40;34.70;;;;;;5075254;28;20247;-74
2022/08/06 04:39:21;;;;;;;7.17;2.33;;;14.90;14.30;;;;;;5075437;28;20503;-74
2022/08/06 04:41:47;;;;;;;4.93;2.63;;;15.30;1.00;;;;;;5074281;28;20669;-74
2022/08/06 04:44:13;;;;;;;7.03;2.30;;;15.70;1.00;;;;;;5075379;28;20181;-74
2022/08/06 04:46:39;;;;;;;6.10;2.23;;;16.30;1.00;;;;;;5075154;28;20169;-74
2022/08/06 04:49:05;;;;;;;4.63;2.30;;;16.60;1.00;;;;;;5075135;28;20188;-74
2022/08/06 04:51:31;;;;;;;4.17;2.27;;;17.20;1.00;;;;;;5073888;28;20177;-75
2022/08/06 04:53:56;;;;;;;13.00;2.80;;;17.60;99.90;;;;;;5074831;28;20632;-73
2022/08/06 04:56:22;;;;;;;9.73;2.30;;;18.00;99.90;;;;;;5074862;28;20226;-74
2022/08/06 04:58:47;;;;;;;5.77;2.57;;;18.40;1.00;;;;;;5075065;28;20180;-74
2022/08/06 05:01:13;;;;;;;7.88;2.80;;;18.90;1.00;;;;;;5073684;28;20724;-74
2022/08/06 05:03:39;;;;;;;10.50;3.42;;;19.70;1.00;;;;;;5074845;28;20624;-75
2022/08/06 05:06:42;;;;;;;8.85;2.67;;;20.40;1.00;;;;;;5075104;28;20176;-75
2022/08/06 05:09:13;;;;;;;4.90;2.30;;;21.30;99.90;;;;;;5074975;28;20165;-75
2022/08/06 05:11:47;;;;;;;5.32;2.58;;;21.80;99.90;;;;;;5081270;28;20214;-75
2022/08/06 05:14:29;;;;;;;8.68;2.47;;;21.80;1.00;;;;;;5115158;28;20684;-75
2022/08/06 05:16:57;;;;;;;12.18;2.88;;;21.60;99.90;;;;;;5115100;28;20163;-74
2022/08/06 05:19:33;;;;;;;12.18;2.60;;;21.20;99.90;;;;;;5115670;28;20178;-74
2022/08/06 05:22:00;;;;;;;12.50;2.90;;;20.80;99.90;;;;;;5115126;28;20202;-75
2022/08/06 05:24:27;;;;;;;16.23;2.95;;;20.70;1.00;;;;;;5115280;28;20171;-74
2022/08/06 05:26:53;;;;;;;7.35;2.55;;;20.80;1.00;;;;;;5115097;28;20212;-74
2022/08/06 05:29:20;;;;;;;4.88;2.60;;;20.90;1.00;;;;;;5096233;28;20176;-74
2022/08/06 05:31:46;;;;;;;6.45;2.30;;;20.80;99.90;;;;;;5114844;28;20180;-74
2022/08/06 05:34:12;;;;;;;6.40;2.50;;;21.30;1.00;;;;;;5115073;28;20531;-76
2022/08/06 05:36:39;;;;;;;5.90;2.75;;;21.90;99.90;;;;;;5115144;28;20241;-76
2022/08/06 05:39:05;;;;;;;5.15;2.40;;;22.40;1.00;;;;;;5114703;28;20170;-77
2022/08/06 05:41:31;;;;;;;6.93;2.10;;;23.10;1.00;;;;;;5114864;28;20171;-76
2022/08/06 05:43:59;;;;;;;3.75;2.05;;;23.20;1.00;;;;;;5114765;28;20171;-77
2022/08/06 05:46:31;;;;;;;5.50;2.35;;;23.50;1.00;;;;;;5114774;28;20178;-77
2022/08/06 05:49:05;;;;;;;6.70;2.45;;;23.90;99.90;;;;;;5114439;28;20262;-77
2022/08/06 05:51:45;;;;;;;5.68;2.53;;;23.60;99.90;;;;;;5114862;28;20222;-77
2022/08/06 05:54:25;;;;;;;7.50;2.65;;;23.40;99.90;;;;;;5114592;28;20167;-79
2022/08/06 05:57:03;;;;;;;3.55;2.08;;;24.50;99.90;;;;;;5114552;28;20178;-79
2022/08/06 05:59:33;;;;;;;3.38;1.77;;;24.40;99.90;;;;;;5095751;28;20179;-79
2022/08/06 06:01:59;;;;;;;4.93;2.03;;;23.40;99.90;;;;;;5114098;28;20692;-77
2022/08/06 06:04:25;;;;;;;3.75;1.90;;;22.60;99.90;;;;;;5096436;28;20197;-79
2022/08/06 06:06:51;;;;;;;5.35;1.80;;;23.00;99.90;;;;;;5095339;28;20213;-78
2022/08/06 06:09:17;;;;;;;5.45;1.90;;;23.80;99.90;;;;;;5114423;28;20253;-79
2022/08/06 06:11:43;;;;;;;4.70;2.20;;;24.60;99.90;;;;;;5113997;28;20211;-78
2022/08/06 06:14:31;;;;;;;6.43;2.25;;;24.60;99.90;;;;;;5113958;28;20240;-78
2022/08/06 06:17:05;;;;;;;4.50;1.98;;;24.10;99.90;;;;;;5114033;28;20538;-78
2022/08/06 06:19:41;;;;;;;6.20;2.58;;;23.50;99.90;;;;;;5114429;28;20623;-78
2022/08/06 06:22:20;;;;;;;5.65;2.30;;;23.20;99.90;;;;;;5113622;28;20795;-77
2022/08/06 06:25:18;;;;;;;8.20;2.22;;;23.00;99.90;;;;;;5114061;28;20223;-77
2022/08/06 06:27:53;;;;;;;7.53;2.15;;;23.70;99.90;;;;;;5113736;28;20624;-77
2022/08/06 06:30:33;;;;;;;8.98;2.45;;;23.90;99.90;;;;;;5113804;28;20254;-78
2022/08/06 06:33:17;;;;;;;9.40;1.90;;;24.30;99.90;;;;;;5113939;28;20179;-79
2022/08/06 06:35:53;;;;;;;3.42;1.80;;;25.00;99.90;;;;;;5095197;28;20194;-78
2022/08/06 06:39:02;;;;;;;6.13;2.28;;;25.30;99.90;;;;;;5113763;28;20163;-79
2022/08/06 06:41:36;;;;;;;8.63;2.10;;;25.80;99.90;;;;;;5113211;28;20635;-77
2022/08/06 06:44:20;;;;;;;7.95;2.10;;;26.60;99.90;;;;;;5113689;28;20175;-76
2022/08/06 06:47:17;;;;;;;6.05;1.70;;;26.20;99.90;;;;;;5113516;28;20163;-76
2022/08/06 06:49:54;;;;;;;4.97;2.10;;;25.50;99.90;;;;;;5030628;28;20185;-76
2022/08/06 06:52:28;;;;;;;10.13;2.40;;;25.30;99.90;;;;;;5031450;28;20205;-77
2022/08/06 06:55:01;;;;;;;6.78;2.03;;;25.30;99.90;;;;;;5031103;28;20182;-77
2022/08/06 06:57:32;;;;;;;5.15;2.33;;;25.20;99.90;;;;;;5030211;28;20173;-78
2022/08/06 07:00:01;;;;;;;7.15;2.35;;;24.80;99.90;;;;;;5030933;28;20193;-77
2022/08/06 07:02:31;;;;;;;7.07;2.00;;;24.70;99.90;;;;;;5030731;28;20284;-78
2022/08/06 07:04:57;;;;;;;6.80;1.70;;;23.60;99.90;;;;;;5031001;28;20214;-78
2022/08/06 07:07:24;;;;;;;5.78;1.52;;;23.10;99.90;;;;;;5030529;28;20264;-77
2022/08/06 07:09:53;;;;;;;9.20;1.67;;;22.60;99.90;;;;;;5030300;28;20727;-77
2022/08/06 07:12:21;;;;;;;4.70;1.65;;;21.80;1.00;;;;;;5030103;28;20245;-77
2022/08/06 07:14:53;;;;;;;8.80;1.88;;;21.00;46.90;;;;;;5030682;28;20349;-77
2022/08/06 07:17:21;;;;;;;6.50;1.65;;;20.50;1.00;;;;;;5032491;28;20252;-77
2022/08/06 07:19:49;;;;;;;2.60;1.50;;;20.60;1.00;;;;;;5018336;28;20264;-76
2022/08/06 07:22:15;;;;;;;8.40;2.10;;;20.50;1.00;;;;;;5034621;28;20257;-76
2022/08/06 07:24:42;;;;;;;4.20;1.48;;;20.60;1.00;;;;;;5034573;28;20650;-77
2022/08/06 07:27:08;;;;;;;6.10;1.90;;;20.60;1.00;;;;;;5112981;28;20518;-76
2022/08/06 07:29:35;;;;;;;4.07;1.60;;;20.70;1.00;;;;;;5117707;28;20171;-78
2022/08/06 07:32:02;;;;;;;3.70;1.75;;;20.80;99.90;;;;;;5117065;28;20191;-76
2022/08/06 07:34:29;;;;;;;5.50;1.50;;;20.40;1.00;;;;;;5117525;28;20179;-77
2022/08/06 07:36:56;;;;;;;5.63;2.13;;;19.80;1.00;;;;;;5116823;28;20694;-76
2022/08/06 07:39:25;;;;;;;3.00;1.20;;;20.00;99.90;;;;;;5116780;28;20258;-76
2022/08/06 07:41:53;;;;;;;2.50;1.25;;;20.70;1.00;;;;;;5117082;28;20200;-78
2022/08/06 07:44:22;;;;;;;5.13;1.35;;;20.60;1.00;;;;;;5117133;28;20167;-78
2022/08/06 07:46:51;;;;;;;5.70;1.38;;;20.90;99.90;;;;;;5098692;28;20166;-77
2022/08/06 07:49:20;;;;;;;4.50;1.58;;;20.90;99.90;;;;;;5116333;28;20163;-77
2022/08/06 07:51:47;;;;;;;4.07;1.45;;;21.40;99.90;;;;;;5098618;28;20167;-77
2022/08/06 07:54:14;;;;;;;3.40;1.42;;;21.60;46.20;;;;;;5116491;28;20178;-77
2022/08/06 07:56:42;;;;;;;6.03;1.45;;;22.20;1.00;;;;;;5116335;28;20159;-78
2022/08/06 07:59:09;;;;;;;8.20;1.80;;;22.50;1.00;;;;;;5116316;28;20181;-80
2022/08/06 08:01:36;;;;;;;2.75;1.45;;;23.40;1.00;;;;;;5116627;28;20167;-78
2022/08/06 08:07:02;;;;;;;4.50;1.50;;;23.80;99.90;;;;;;5117018;28;20193;-79
2022/08/06 08:09:28;;;;;;;5.93;1.38;;;25.10;99.90;;;;;;5115767;28;20211;-79
2022/08/06 08:11:55;;;;;;;5.63;1.63;;;26.00;99.90;;;;;;5116324;28;20231;-80
2022/08/06 08:14:22;;;;;;;5.00;1.60;;;26.90;99.90;;;;;;5098454;28;20171;-80
2022/08/06 08:16:48;;;;;;;1.75;0.80;;;27.60;99.90;;;;;;5115912;28;20220;-79
2022/08/06 08:19:33;;;;;;;1.50;1.10;;;27.50;99.90;;;;;;5116517;28;20214;-79
2022/08/06 08:22:19;;;;;;;2.42;1.40;;;27.90;99.90;;;;;;5116557;28;20195;-78
2022/08/06 08:24:47;;;;;;;2.60;1.10;;;28.20;99.90;;;;;;5115504;28;20179;-79
2022/08/06 08:27:14;;;;;;;2.58;0.90;;;28.50;99.90;;;;;;5116040;28;20634;-80
2022/08/06 08:29:41;;;;;;;1.40;1.00;;;28.20;99.90;;;;;;5115822;28;20160;-80
2022/08/06 08:32:08;;;;;;;2.95;1.27;;;26.70;99.90;;;;;;5116421;28;20183;-80
2022/08/06 08:34:37;;;;;;;3.38;1.23;;;26.00;99.90;;;;;;5115968;28;20179;-80
2022/08/06 08:37:03;;;;;;;1.88;0.85;;;25.30;99.90;;;;;;5116040;28;20479;-79
2022/08/06 08:39:30;;;;;;;2.38;0.93;;;24.70;99.90;;;;;;5097118;28;20177;-80
2022/08/06 08:42:06;;;;;;;2.25;1.02;;;24.30;99.90;;;;;;5115855;28;20275;-80
2022/08/06 08:44:33;;;;;;;2.38;1.15;;;24.20;99.90;;;;;;5115247;28;20532;-81
2022/08/06 08:46:59;;;;;;;3.17;1.02;;;24.80;99.90;;;;;;5115575;28;20206;-81
2022/08/06 08:49:35;;;;;;;1.95;1.08;;;25.10;99.90;;;;;;5115211;28;20191;-80
2022/08/06 08:52:03;;;;;;;3.22;1.10;;;24.20;99.90;;;;;;5115662;28;20617;-81
2022/08/06 08:54:33;;;;;;;2.53;0.90;;;24.00;99.90;;;;;;5097236;28;20263;-80
2022/08/06 08:56:59;;;;;;;2.72;1.17;;;24.60;99.90;;;;;;5115074;28;20195;-81
2022/08/06 08:59:25;;;;;;;2.72;1.10;;;24.00;99.90;;;;;;5115804;28;20202;-77
2022/08/06 09:01:52;;;;;;;2.63;0.88;;;24.90;99.90;;;;;;5115797;28;20163;-77
2022/08/06 09:04:17;;;;;;;4.07;1.20;;;25.40;99.90;;;;;;5114618;28;20261;-77
2022/08/06 09:06:43;;;;;;;2.22;1.10;;;25.70;99.90;;;;;;5115213;28;20242;-79
2022/08/06 09:09:09;;;;;;;1.58;0.98;;;27.00;99.90;;;;;;5097284;28;20254;-79
2022/08/06 09:11:36;;;;;;;2.25;1.13;;;26.50;99.90;;;;;;5114938;28;20518;-76
2022/08/06 09:14:04;;;;;;;1.95;1.20;;;27.00;99.90;;;;;;5115390;28;20167;-77
2022/08/06 09:16:32;;;;;;;5.25;1.30;;;26.70;99.90;;;;;;5115004;28;20224;-77
2022/08/06 09:18:59;;;;;;;2.22;1.30;;;26.40;99.90;;;;;;5115463;28;20191;-76
2022/08/06 09:21:24;;;;;;;2.13;1.00;;;27.60;99.90;;;;;;5114695;28;20171;-75
2022/08/06 09:23:50;;;;;;;1.75;1.00;;;29.20;99.90;;;;;;5114484;28;20689;-79
2022/08/06 09:26:15;;;;;;;2.22;0.98;;;28.40;99.90;;;;;;5114931;28;20223;-78
2022/08/06 09:28:43;;;;;;;2.40;1.35;;;26.00;99.90;;;;;;5114763;28;20175;-75
2022/08/06 09:31:12;;;;;;;3.85;1.13;;;25.00;99.90;;;;;;5115379;28;20183;-75
2022/08/06 09:33:40;;;;;;;5.13;1.40;;;25.50;99.90;;;;;;5115011;28;20584;-77
2022/08/06 09:36:11;;;;;;;3.95;1.50;;;25.30;99.90;;;;;;5114713;28;20240;-78
2022/08/06 09:38:47;;;;;;;2.80;1.35;;;25.30;99.90;;;;;;5114728;28;20233;-77
2022/08/06 09:41:15;;;;;;;1.63;1.05;;;25.30;99.90;;;;;;5114728;28;20190;-79
2022/08/06 09:43:41;;;;;;;3.72;1.13;;;25.70;99.90;;;;;;5114742;28;20557;-78
2022/08/06 09:46:07;;;;;;;1.95;1.23;;;24.90;99.90;;;;;;5114875;28;20163;-77
2022/08/06 09:48:33;;;;;;;2.40;1.20;;;24.90;99.90;;;;;;5114204;28;20246;-74
2022/08/06 09:50:59;;;;;;;3.28;1.33;;;26.10;99.90;;;;;;5114310;28;20167;-74
2022/08/06 09:53:26;;;;;;;3.25;1.30;;;27.50;99.90;;;;;;5114763;28;20223;-75
2022/08/06 09:55:54;;;;;;;4.18;1.40;;;29.00;99.90;;;;;;5114048;28;20163;-76
2022/08/06 09:58:29;;;;;;;2.17;1.23;;;30.50;99.90;;;;;;5113812;28;20168;-76
2022/08/06 10:00:55;;;;;;;2.92;1.35;;;31.60;94.30;;;;;;5096612;28;20202;-77
2022/08/06 10:03:20;;;;;;;2.10;0.85;;;32.00;73.60;;;;;;5114521;28;20238;-77
2022/08/06 10:05:46;;;;;;;1.73;1.08;;;31.00;58.70;;;;;;5113750;28;20319;-78
2022/08/06 10:08:17;;;;;;;2.50;0.80;;;30.00;64.70;;;;;;5113441;28;20646;-77
2022/08/06 10:10:49;;;;;;;1.88;1.23;;;28.40;73.70;;;;;;5114391;28;20179;-78
2022/08/06 10:13:26;;;;;;;1.48;0.90;;;26.80;92.20;;;;;;5114022;28;20223;-78
2022/08/06 10:15:59;;;;;;;2.28;1.13;;;27.20;99.10;;;;;;5095339;28;20189;-75
2022/08/06 10:18:40;;;;;;;1.75;0.90;;;27.80;95.80;;;;;;5114018;28;20182;-76
2022/08/06 10:21:08;;;;;;;2.92;1.10;;;27.90;89.70;;;;;;5113376;28;20661;-77
2022/08/06 10:23:39;;;;;;;1.77;1.00;;;28.00;85.50;;;;;;5096281;28;20576;-77
2022/08/06 10:26:10;;;;;;;1.67;0.85;;;27.20;91.30;;;;;;5113538;28;20636;-76
2022/08/06 10:28:38;;;;;;;1.10;0.80;;;27.00;87.90;;;;;;5095405;28;20167;-75
2022/08/06 10:31:08;;;;;;;1.38;0.90;;;27.40;86.10;;;;;;5114067;28;20179;-77
2022/08/06 10:34:07;;;;;;;2.13;0.80;;;28.10;81.40;;;;;;5113813;28;20175;-78
2022/08/06 10:36:51;;;;;;;1.98;1.02;;;29.30;61.50;;;;;;5113782;28;20195;-78
2022/08/06 10:39:23;;;;;;;2.47;0.77;;;28.10;64.30;;;;;;5114410;28;20167;-79
2022/08/06 10:41:49;;;;;;;3.03;0.93;;;26.20;71.40;;;;;;5114575;28;20167;-77
2022/08/06 10:44:15;;;;;;;2.10;0.90;;;26.70;90.00;;;;;;5113447;28;20196;-78
2022/08/06 10:46:42;;;;;;;1.13;1.00;;;28.10;77.10;;;;;;5113537;28;20564;-76
2022/08/06 10:49:09;;;;;;;1.90;0.63;;;26.60;84.30;;;;;;5113047;28;20665;-76
2022/08/06 10:51:36;;;;;;;3.10;0.80;;;26.70;92.00;;;;;;5113264;28;20250;-81
2022/08/06 10:54:03;;;;;;;2.85;0.90;;;27.20;80.00;;;;;;5095665;28;20167;-74
2022/08/06 10:56:29;;;;;;;2.17;0.95;;;26.70;76.60;;;;;;5112600;28;20323;-80
2022/08/06 10:58:55;;;;;;;1.90;0.82;;;26.10;72.30;;;;;;5113481;28;20606;-76
2022/08/06 11:01:45;;;;;;;1.75;1.27;;;25.80;81.90;;;;;;5113699;28;20661;-78
2022/08/06 11:04:38;;;;;;;3.08;1.20;;;25.90;91.90;;;;;;5112487;28;20273;-76
2022/08/06 11:07:25;;;;;;;3.15;1.40;;;26.10;92.90;;;;;;5113329;28;20163;-77
2022/08/06 11:09:59;;;;;;;1.75;0.82;;;25.60;95.40;;;;;;5113270;28;20171;-76
2022/08/06 11:12:46;;;;;;;0.60;0.60;;;25.90;93.40;;;;;;5112338;28;20293;-78
2022/08/06 11:15:12;;;;;;;1.17;0.88;;;26.20;93.30;;;;;;5113330;28;20163;-78
2022/08/06 11:17:43;;;;;;;2.42;0.90;;;27.00;86.20;;;;;;5112843;28;20165;-79
2022/08/06 11:20:31;;;;;;;3.05;1.20;;;26.50;84.40;;;;;;5113670;28;20539;-78
2022/08/06 11:23:05;;;;;;;1.23;0.60;;;25.90;85.90;;;;;;5112679;28;20264;-77
2022/08/06 11:25:45;;;;;;;1.05;0.80;;;25.10;93.80;;;;;;5113127;28;20630;-75
2022/08/06 11:28:31;;;;;;;2.22;0.88;;;26.20;96.40;;;;;;5113052;28;20250;-75
2022/08/06 11:31:00;;;;;;;1.95;0.98;;;27.00;86.60;;;;;;5111493;28;20262;-74
2022/08/06 11:33:34;;;;;;;1.85;0.90;;;27.80;81.20;;;;;;5112736;28;20164;-77
2022/08/06 11:36:04;;;;;;;1.02;0.88;;;28.70;67.30;;;;;;5112639;28;20205;-76
2022/08/06 11:38:51;;;;;;;1.98;0.85;;;29.40;58.40;;;;;;5112812;28;20183;-81
2022/08/06 11:41:22;;;;;;;3.47;0.95;;;29.70;49.50;;;;;;5113121;28;20206;-80
2022/08/06 11:44:05;;;;;;;1.77;1.10;;;29.30;46.50;;;;;;5112531;28;20214;-78
2022/08/06 11:46:36;;;;;;;3.67;1.20;;;28.80;46.80;;;;;;5094166;28;20174;-77
2022/08/06 11:49:06;;;;;;;3.97;2.97;;;28.00;45.90;;;;;;5113172;28;20240;-75
2022/08/06 11:51:59;;;;;;;2.38;1.00;;;25.70;54.20;;;;;;5112026;28;20171;-77
2022/08/06 11:54:30;;;;;;;1.98;1.00;;;24.10;80.20;;;;;;5113268;28;20175;-77
2022/08/06 11:57:06;;;;;;;2.50;1.00;;;24.70;91.80;;;;;;5093885;28;20633;-79
2022/08/06 11:59:33;;;;;;;1.95;1.20;;;25.40;90.00;;;;;;5112822;28;20262;-77
2022/08/06 12:02:01;;;;;;;1.30;0.80;;;25.10;84.70;;;;;;5112018;28;20164;-79
2022/08/06 12:04:35;;;;;;;2.35;0.80;;;24.60;92.10;;;;;;5095917;28;20178;-77
2022/08/06 12:07:21;;;;;;;3.08;1.42;;;24.50;91.10;;;;;;5116463;28;20174;-77
2022/08/06 12:10:02;;;;;;;1.33;0.80;;;24.40;96.70;;;;;;5116696;28;20167;-76
2022/08/06 12:12:32;;;;;;;2.30;1.02;;;24.50;96.40;;;;;;5116066;28;20231;-77
2022/08/06 12:15:00;;;;;;;1.60;1.27;;;24.30;95.80;;;;;;5097934;28;20209;-77
2022/08/06 12:17:28;;;;;;;2.10;1.35;;;24.50;95.20;;;;;;5116094;28;20195;-77
2022/08/06 12:19:57;;;;;;;2.75;1.50;;;24.20;91.00;;;;;;5116047;28;20216;-77
2022/08/06 12:22:24;;;;;;;1.60;1.30;;;24.10;90.60;;;;;;5116022;28;20199;-77
2022/08/06 12:24:53;;;;;;;1.40;0.90;;;23.80;92.90;;;;;;5097898;28;20171;-77
2022/08/06 12:27:23;;;;;;;2.65;1.20;;;23.70;95.10;;;;;;5115985;28;20179;-76
2022/08/06 12:29:56;;;;;;;1.48;1.17;;;24.10;97.60;;;;;;5115579;28;20208;-78
2022/08/06 12:32:34;;;;;;;2.10;1.10;;;23.60;96.80;;;;;;5116184;28;20678;-78
2022/08/06 12:35:02;;;;;;;5.22;1.20;;;23.70;98.80;;;;;;5115713;28;20178;-78
2022/08/06 12:37:39;;;;;;;2.10;1.25;;;23.90;98.40;;;;;;5116217;28;20167;-77
2022/08/06 12:40:28;;;;;;;2.60;1.45;;;24.40;95.60;;;;;;5115960;28;20167;-78
2022/08/06 12:43:03;;;;;;;1.52;1.33;;;24.60;93.20;;;;;;5115411;28;20248;-80
2022/08/06 12:45:30;;;;;;;1.50;1.40;;;25.00;89.80;;;;;;5114791;28;20174;-79
2022/08/06 12:47:57;;;;;;;1.10;1.08;;;24.70;89.00;;;;;;5115578;28;20258;-79
2022/08/06 12:50:23;;;;;;;1.33;1.23;;;24.50;87.70;;;;;;5115567;28;20167;-78
2022/08/06 12:53:06;;;;;;;2.25;1.50;;;23.80;86.00;;;;;;5097244;28;20175;-78
2022/08/06 12:55:41;;;;;;;2.47;1.15;;;23.80;93.70;;;;;;5115413;28;20171;-77
2022/08/06 12:58:09;;;;;;;1.35;1.10;;;24.20;96.10;;;;;;5098826;28;20167;-76
2022/08/06 13:00:35;;;;;;;2.58;1.15;;;24.70;92.90;;;;;;5114896;28;20619;-79
2022/08/06 13:03:02;;;;;;;1.30;1.20;;;24.90;90.60;;;;;;5115462;28;20233;-78
2022/08/06 13:05:28;;;;;;;1.08;1.05;;;25.20;89.20;;;;;;5115546;28;20163;-79
2022/08/06 13:07:55;;;;;;;1.60;1.50;;;24.50;80.60;;;;;;5115076;28;20216;-78
2022/08/06 13:10:21;;;;;;;1.33;1.10;;;23.70;90.00;;;;;;5115626;28;20658;-78